createdAt,value
2022-10-23T00:00:41.587Z,6.82
2022-10-23T00:05:43.256Z,7.55
2022-10-23T00:10:45.271Z,7.63
2022-10-23T00:15:46.964Z,7.63
2022-10-23T00:20:48.587Z,7.80
2022-10-23T00:25:50.715Z,8.05
2022-10-23T00:30:52.502Z,8.25
2022-10-23T00:35:54.174Z,7.18
2022-10-23T00:40:55.825Z,7.93
2022-10-23T00:45:58.270Z,7.53
2022-10-23T00:50:59.915Z,7.43
2022-10-23T00:56:03.145Z,7.32
2022-10-23T01:01:20.894Z,7.60
2022-10-23T01:06:37.891Z,6.90
2022-10-23T01:11:45.953Z,7.25
2022-10-23T01:16:50.318Z,7.70
2022-10-23T01:22:10.109Z,8.05
2022-10-23T01:27:31.337Z,7.45
2022-10-23T01:32:45.339Z,7.47
2022-10-23T01:37:53.330Z,7.40
2022-10-23T01:43:01.382Z,7.72
2022-10-23T01:48:04.456Z,7.88
2022-10-23T01:53:06.267Z,7.25
2022-10-23T01:58:09.000Z,7.50
2022-10-23T02:03:13.144Z,7.20
2022-10-23T02:08:14.980Z,7.18
2022-10-23T02:13:30.719Z,6.85
2022-10-23T02:18:49.010Z,6.82
2022-10-23T02:24:06.641Z,6.43
2022-10-23T02:29:29.753Z,6.22
2022-10-23T02:34:31.686Z,6.53
2022-10-23T02:39:33.439Z,6.38
2022-10-23T02:44:55.902Z,6.43
2022-10-23T02:50:36.025Z,6.18
2022-10-23T02:55:47.767Z,5.88
2022-10-23T03:00:54.708Z,5.78
2022-10-23T03:05:56.459Z,5.43
2022-10-23T03:10:58.221Z,5.45
2022-10-23T03:15:59.844Z,5.90
2022-10-23T03:21:01.501Z,5.90
2022-10-23T03:26:03.226Z,5.53
2022-10-23T03:31:05.198Z,5.93
2022-10-23T03:36:07.194Z,6.80
2022-10-23T03:41:08.845Z,7.57
2022-10-23T03:46:12.838Z,5.75
2022-10-23T03:51:14.706Z,7.00
2022-10-23T03:56:16.602Z,6.28
2022-10-23T04:01:18.346Z,5.75
2022-10-23T04:06:19.980Z,5.35
2022-10-23T04:11:21.773Z,5.68
2022-10-23T04:16:24.410Z,5.15
2022-10-23T04:21:26.047Z,6.15
2022-10-23T04:26:27.692Z,5.47
2022-10-23T04:31:29.421Z,5.85
2022-10-23T04:36:31.168Z,5.35
2022-10-23T04:41:32.835Z,5.72
2022-10-23T04:46:34.513Z,5.65
2022-10-23T04:51:38.148Z,5.50
2022-10-23T04:56:39.770Z,5.32
2022-10-23T05:01:41.401Z,5.60
2022-10-23T05:06:43.102Z,7.03
2022-10-23T05:11:44.709Z,5.80
2022-10-23T05:17:00.745Z,5.00
2022-10-23T05:22:03.789Z,6.75
2022-10-23T05:27:05.483Z,5.70
2022-10-23T05:32:10.387Z,4.93
2022-10-23T05:37:15.783Z,4.68
2022-10-23T05:42:17.447Z,4.80
2022-10-23T05:47:19.139Z,5.13
2022-10-23T05:52:20.886Z,5.50
2022-10-23T05:57:22.608Z,5.50
2022-10-23T06:02:24.474Z,5.40
2022-10-23T06:07:29.245Z,5.38
2022-10-23T06:12:33.441Z,5.28
2022-10-23T06:17:35.152Z,5.00
2022-10-23T06:22:36.835Z,5.28
2022-10-23T06:27:38.468Z,4.72
2022-10-23T06:32:40.248Z,4.72
2022-10-23T06:37:42.093Z,4.85
2022-10-23T06:42:44.007Z,5.28
2022-10-23T06:47:46.052Z,4.78
2022-10-23T06:52:48.109Z,4.95
2022-10-23T06:57:49.811Z,4.00
2022-10-23T07:02:52.317Z,4.03
2022-10-23T07:07:53.960Z,4.25
2022-10-23T07:13:00.646Z,3.90
2022-10-23T07:18:02.359Z,3.05
2022-10-23T07:23:04.002Z,3.55
2022-10-23T07:28:05.753Z,3.55
2022-10-23T07:33:08.087Z,3.25
2022-10-23T07:38:09.702Z,2.58
2022-10-23T07:43:11.348Z,2.88
2022-10-23T07:48:13.047Z,2.80
2022-10-23T07:53:18.930Z,2.83
2022-10-23T07:58:20.964Z,2.60
2022-10-23T08:03:22.674Z,2.58
2022-10-23T08:08:25.595Z,3.00
2022-10-23T08:13:27.296Z,3.10
2022-10-23T08:18:29.203Z,4.53
2022-10-23T08:23:30.924Z,3.75
2022-10-23T08:28:33.098Z,3.20
2022-10-23T08:33:34.798Z,2.83
2022-10-23T08:38:36.573Z,2.60
2022-10-23T08:43:43.766Z,2.88
2022-10-23T08:48:51.147Z,2.75
2022-10-23T08:54:00.183Z,2.53
2022-10-23T08:59:05.393Z,3.08
2022-10-23T09:04:09.824Z,2.72
2022-10-23T09:09:20.044Z,3.08
2022-10-23T09:14:30.518Z,2.92
2022-10-23T09:19:32.252Z,2.60
2022-10-23T09:24:34.019Z,2.35
2022-10-23T09:29:36.184Z,2.72
2022-10-23T09:34:37.884Z,2.38
2022-10-23T09:39:39.563Z,2.20
2022-10-23T09:44:49.869Z,4.25
2022-10-23T09:49:54.081Z,2.30
2022-10-23T09:54:58.209Z,2.45
2022-10-23T10:00:14.618Z,2.28
2022-10-23T10:05:27.827Z,1.77
2022-10-23T10:10:35.845Z,2.50
2022-10-23T10:15:52.900Z,2.63
2022-10-23T10:21:20.054Z,2.50
2022-10-23T10:26:44.568Z,2.90
2022-10-23T10:32:13.735Z,2.67
2022-10-23T10:37:27.621Z,3.00
2022-10-23T10:42:42.699Z,3.00
2022-10-23T10:48:01.798Z,2.70
2022-10-23T10:53:26.213Z,3.28
2022-10-23T10:58:33.725Z,3.30
2022-10-23T11:03:52.164Z,4.18
2022-10-23T11:09:09.194Z,3.00
2022-10-23T11:14:29.116Z,4.82
2022-10-23T11:19:53.343Z,2.70
2022-10-23T11:25:12.157Z,2.67
2022-10-23T11:30:29.597Z,2.00
2022-10-23T11:35:53.751Z,2.20
2022-10-23T11:40:59.403Z,1.88
2022-10-23T11:46:14.780Z,1.77
2022-10-23T11:51:33.191Z,1.88
2022-10-23T11:56:34.925Z,1.88
2022-10-23T12:01:46.271Z,2.00
2022-10-23T12:06:55.467Z,1.75
2022-10-23T12:12:12.877Z,1.83
2022-10-23T12:17:23.812Z,1.92
2022-10-23T12:27:58.561Z,1.83
2022-10-23T12:33:37.206Z,2.00
2022-10-23T12:38:46.415Z,2.08
2022-10-23T12:43:55.893Z,1.95
2022-10-23T12:48:58.833Z,1.90
2022-10-23T12:54:02.107Z,2.28
2022-10-23T12:59:10.543Z,2.08
2022-10-23T13:04:32.007Z,2.15
2022-10-23T13:09:41.827Z,2.33
2022-10-23T13:14:57.151Z,1.95
2022-10-23T13:20:09.636Z,2.00
2022-10-23T13:25:33.181Z,2.10
2022-10-23T13:30:38.346Z,1.90
2022-10-23T13:35:40.195Z,1.85
2022-10-23T13:40:41.950Z,2.05
2022-10-23T13:45:43.714Z,2.30
2022-10-23T13:50:45.534Z,2.08
2022-10-23T13:55:53.657Z,2.30
2022-10-23T14:00:58.615Z,2.00
2022-10-23T14:06:01.487Z,2.33
2022-10-23T14:11:03.293Z,2.25
2022-10-23T14:16:06.129Z,2.13
2022-10-23T14:21:10.432Z,2.20
2022-10-23T14:26:15.316Z,2.58
2022-10-23T14:31:18.579Z,2.58
2022-10-23T14:36:20.346Z,2.58
2022-10-23T14:41:22.030Z,2.83
2022-10-23T14:46:24.675Z,2.25
2022-10-23T14:51:28.654Z,2.47
2022-10-23T14:56:32.894Z,2.53
2022-10-23T15:01:41.245Z,3.10
2022-10-23T15:06:47.225Z,3.00
2022-10-23T15:11:49.002Z,4.95
2022-10-23T15:16:50.628Z,3.58
2022-10-23T15:21:52.551Z,3.00
2022-10-23T15:26:54.313Z,2.85
2022-10-23T15:31:58.597Z,3.75
2022-10-23T15:37:00.304Z,4.43
2022-10-23T15:42:05.569Z,5.68
2022-10-23T15:47:07.487Z,4.80
2022-10-23T15:57:16.799Z,4.25
2022-10-23T16:02:18.585Z,4.80
2022-10-23T16:07:20.425Z,4.78
2022-10-23T16:12:22.066Z,4.45
2022-10-23T16:17:24.250Z,3.75
2022-10-23T16:22:27.033Z,3.05
2022-10-23T16:27:28.756Z,2.75
2022-10-23T16:32:30.918Z,2.42
2022-10-23T16:37:33.283Z,2.50
2022-10-23T16:42:35.013Z,2.83
2022-10-23T16:47:36.624Z,2.83
2022-10-23T16:52:38.306Z,2.60
2022-10-23T16:57:39.967Z,2.58
2022-10-23T17:02:41.719Z,2.45
2022-10-23T17:07:43.798Z,2.90
2022-10-23T17:12:45.703Z,2.90
2022-10-23T17:17:47.352Z,2.88
2022-10-23T17:22:49.008Z,2.15
2022-10-23T17:27:50.649Z,2.50
2022-10-23T17:32:52.327Z,3.33
2022-10-23T17:37:55.407Z,4.03
2022-10-23T17:42:57.352Z,4.85
2022-10-23T17:47:58.996Z,3.78
2022-10-23T17:53:00.636Z,3.58
2022-10-23T17:58:02.302Z,4.18
2022-10-23T18:03:04.618Z,3.63
2022-10-23T18:08:06.270Z,3.90
2022-10-23T18:13:07.911Z,3.75
2022-10-23T18:18:09.527Z,4.40
2022-10-23T18:23:11.136Z,4.15
2022-10-23T18:28:12.796Z,4.05
2022-10-23T18:33:15.637Z,4.03
2022-10-23T18:38:17.265Z,4.40
2022-10-23T18:43:31.316Z,4.70
2022-10-23T18:48:41.843Z,3.80
2022-10-23T18:53:46.647Z,2.80
2022-10-23T18:58:50.201Z,3.00
2022-10-23T19:03:51.874Z,2.70
2022-10-23T19:08:53.954Z,2.88
2022-10-23T19:13:55.756Z,3.58
2022-10-23T19:19:01.283Z,2.00
2022-10-23T19:24:07.025Z,2.10
2022-10-23T19:29:12.609Z,2.38
2022-10-23T19:34:14.891Z,2.33
2022-10-23T19:39:16.887Z,2.42
2022-10-23T19:44:19.770Z,2.33
2022-10-23T19:49:23.735Z,2.30
2022-10-23T19:54:25.505Z,2.33
2022-10-23T19:59:27.192Z,3.67
2022-10-23T20:04:29.371Z,3.10
2022-10-23T20:09:31.198Z,2.90
2022-10-23T20:14:33.006Z,2.65
2022-10-23T20:19:35.014Z,2.97
2022-10-23T20:24:36.659Z,2.92
2022-10-23T20:29:38.394Z,2.40
2022-10-23T20:34:40.176Z,2.03
2022-10-23T20:39:42.905Z,2.03
2022-10-23T20:44:44.609Z,2.70
2022-10-23T20:49:47.750Z,2.60
2022-10-23T20:54:49.452Z,2.35
2022-10-23T20:59:52.764Z,2.38
2022-10-23T21:04:54.460Z,2.45
2022-10-23T21:09:56.167Z,2.70
2022-10-23T21:14:58.150Z,2.50
2022-10-23T21:19:59.871Z,2.58
2022-10-23T21:25:01.695Z,2.60
2022-10-23T21:30:06.132Z,3.17
2022-10-23T21:35:08.766Z,2.47
2022-10-23T21:40:11.188Z,2.47
2022-10-23T21:45:12.841Z,2.60
2022-10-23T21:50:14.513Z,3.00
2022-10-23T21:55:16.270Z,3.10
2022-10-23T22:00:18.097Z,3.10
2022-10-23T22:05:19.774Z,3.10
2022-10-23T22:10:21.417Z,3.33
2022-10-23T22:15:23.126Z,3.22
2022-10-23T22:20:24.891Z,2.97
2022-10-23T22:25:26.516Z,2.60
2022-10-23T22:30:28.159Z,3.25
2022-10-23T22:35:30.708Z,3.25
2022-10-23T22:40:35.710Z,3.28
2022-10-23T22:45:37.473Z,2.92
2022-10-23T22:50:39.101Z,3.53
2022-10-23T22:55:43.639Z,3.40
2022-10-23T23:00:45.827Z,3.50
2022-10-23T23:05:48.362Z,3.38
2022-10-23T23:10:54.535Z,3.30
2022-10-23T23:15:56.840Z,3.53
2022-10-23T23:21:05.486Z,3.58
2022-10-23T23:26:07.381Z,3.75
2022-10-23T23:31:21.811Z,3.72
2022-10-23T23:36:26.591Z,3.75
2022-10-23T23:41:29.203Z,3.70
2022-10-23T23:46:30.804Z,4.20
2022-10-23T23:51:32.439Z,4.03
2022-10-23T23:56:34.072Z,3.90
